createdAt,value
2019-03-19T00:00:55.467Z,99.90
2019-03-19T00:03:36.681Z,99.90
2019-03-19T00:06:09.346Z,99.90
2019-03-19T00:08:38.762Z,99.90
2019-03-19T00:11:11.229Z,99.90
2019-03-19T00:13:42.196Z,99.90
2019-03-19T00:16:16.524Z,99.90
2019-03-19T00:18:49.504Z,99.90
2019-03-19T00:21:18.901Z,99.90
2019-03-19T00:23:53.470Z,99.90
2019-03-19T00:26:22.406Z,99.90
2019-03-19T00:28:51.775Z,99.90
2019-03-19T00:31:21.101Z,99.90
2019-03-19T00:33:50.417Z,99.90
2019-03-19T00:36:20.684Z,99.90
2019-03-19T00:38:50.000Z,99.90
2019-03-19T00:41:19.301Z,99.90
2019-03-19T00:43:48.623Z,99.90
2019-03-19T00:46:17.950Z,99.90
2019-03-19T00:48:47.259Z,99.90
2019-03-19T00:51:16.577Z,99.90
2019-03-19T00:53:45.904Z,99.90
2019-03-19T00:56:15.215Z,99.90
2019-03-19T00:58:44.527Z,99.90
2019-03-19T01:01:13.841Z,99.90
2019-03-19T01:03:43.152Z,99.90
2019-03-19T01:06:12.500Z,99.90
2019-03-19T01:08:41.811Z,99.90
2019-03-19T01:11:11.120Z,99.90
2019-03-19T01:13:40.433Z,99.90
2019-03-19T01:16:09.740Z,99.90
2019-03-19T01:18:39.057Z,99.90
2019-03-19T01:21:08.361Z,99.90
2019-03-19T01:23:37.693Z,99.90
2019-03-19T01:26:07.005Z,99.90
2019-03-19T01:28:36.327Z,99.90
2019-03-19T01:31:05.669Z,99.90
2019-03-19T01:33:34.981Z,99.90
2019-03-19T01:36:04.304Z,99.90
2019-03-19T01:38:33.615Z,99.90
2019-03-19T01:41:02.924Z,99.90
2019-03-19T01:43:32.237Z,99.90
2019-03-19T01:46:01.556Z,99.90
2019-03-19T01:48:30.874Z,99.90
2019-03-19T01:51:00.258Z,99.90
2019-03-19T01:53:29.572Z,99.90
2019-03-19T01:56:05.093Z,99.90
2019-03-19T01:58:29.942Z,99.90
2019-03-19T02:01:02.528Z,99.90
2019-03-19T02:03:31.855Z,99.90
2019-03-19T02:06:01.240Z,99.90
2019-03-19T02:08:30.577Z,99.90
2019-03-19T02:10:59.979Z,99.90
2019-03-19T02:13:30.846Z,99.90
2019-03-19T02:16:00.159Z,99.90
2019-03-19T02:18:29.621Z,99.90
2019-03-19T02:20:58.981Z,99.90
2019-03-19T02:23:28.406Z,99.90
2019-03-19T02:25:57.732Z,99.90
2019-03-19T02:28:27.128Z,99.90
2019-03-19T02:30:56.471Z,99.90
2019-03-19T02:33:25.905Z,99.90
2019-03-19T02:35:56.912Z,99.90
2019-03-19T02:38:26.506Z,99.90
2019-03-19T02:40:55.865Z,99.90
2019-03-19T02:43:25.178Z,99.90
2019-03-19T02:45:54.551Z,99.90
2019-03-19T02:48:23.933Z,99.90
2019-03-19T02:50:53.413Z,99.90
2019-03-19T02:53:25.474Z,99.90
2019-03-19T02:55:54.821Z,99.90
2019-03-19T02:58:24.129Z,99.90
2019-03-19T03:00:53.447Z,99.90
2019-03-19T03:03:22.756Z,99.90
2019-03-19T03:05:53.048Z,99.90
2019-03-19T03:08:22.425Z,99.90
2019-03-19T03:10:51.741Z,99.90
2019-03-19T03:13:21.063Z,99.90
2019-03-19T03:15:50.421Z,99.90
2019-03-19T03:18:19.742Z,99.90
2019-03-19T03:20:49.108Z,99.90
2019-03-19T03:23:18.521Z,99.90
2019-03-19T03:25:47.938Z,99.90
2019-03-19T03:28:17.340Z,99.90
2019-03-19T03:30:46.682Z,99.90
2019-03-19T03:33:15.983Z,99.90
2019-03-19T03:35:45.384Z,99.90
2019-03-19T03:38:14.783Z,99.90
2019-03-19T03:40:44.195Z,99.90
2019-03-19T03:43:13.610Z,99.90
2019-03-19T03:45:42.958Z,99.90
2019-03-19T03:48:12.317Z,99.90
2019-03-19T03:50:41.644Z,99.90
2019-03-19T03:53:10.966Z,99.90
2019-03-19T03:55:40.296Z,99.90
2019-03-19T03:58:09.609Z,99.90
2019-03-19T04:00:38.919Z,99.90
2019-03-19T04:03:08.257Z,99.90
2019-03-19T04:05:37.569Z,99.90
2019-03-19T04:08:06.887Z,99.90
2019-03-19T04:10:36.201Z,99.90
2019-03-19T04:13:05.575Z,99.90
2019-03-19T04:15:34.897Z,99.90
2019-03-19T04:18:04.204Z,99.90
2019-03-19T04:20:33.528Z,99.90
2019-03-19T04:23:02.947Z,99.90
2019-03-19T04:25:32.275Z,99.90
2019-03-19T04:28:01.577Z,99.90
2019-03-19T04:30:30.884Z,99.90
2019-03-19T04:33:00.195Z,99.90
2019-03-19T04:35:29.509Z,99.90
2019-03-19T04:37:58.811Z,99.90
2019-03-19T04:40:28.129Z,99.90
2019-03-19T04:42:57.514Z,99.90
2019-03-19T04:45:26.852Z,99.90
2019-03-19T04:47:56.215Z,99.90
2019-03-19T04:50:25.547Z,99.90
2019-03-19T04:52:54.883Z,99.90
2019-03-19T04:55:24.183Z,99.90
2019-03-19T04:57:53.527Z,99.90
2019-03-19T05:00:22.828Z,99.90
2019-03-19T05:02:52.152Z,99.90
2019-03-19T05:05:21.471Z,99.90
2019-03-19T05:07:50.826Z,99.90
2019-03-19T05:10:20.260Z,99.90
2019-03-19T05:12:49.579Z,99.90
2019-03-19T05:15:18.901Z,99.90
2019-03-19T05:17:48.222Z,99.90
2019-03-19T05:20:19.084Z,99.90
2019-03-19T05:22:48.422Z,99.90
2019-03-19T05:25:17.720Z,99.90
2019-03-19T05:27:47.045Z,99.90
2019-03-19T05:30:20.619Z,99.90
2019-03-19T05:32:49.989Z,99.90
2019-03-19T05:35:19.288Z,99.90
2019-03-19T05:37:48.612Z,99.90
2019-03-19T05:40:18.276Z,99.90
2019-03-19T05:42:47.652Z,99.90
2019-03-19T05:45:17.051Z,99.90
2019-03-19T05:47:46.375Z,99.90
2019-03-19T05:50:21.415Z,99.90
2019-03-19T05:52:50.749Z,99.90
2019-03-19T05:55:20.053Z,99.90
2019-03-19T05:57:50.576Z,99.90
2019-03-19T06:00:21.700Z,99.90
2019-03-19T06:02:51.026Z,99.90
2019-03-19T06:05:21.270Z,99.90
2019-03-19T06:07:50.997Z,99.90
2019-03-19T06:10:20.323Z,99.90
2019-03-19T06:12:49.745Z,99.90
2019-03-19T06:15:19.119Z,99.90
2019-03-19T06:17:48.446Z,99.90
2019-03-19T06:20:23.042Z,99.90
2019-03-19T06:22:53.694Z,99.90
2019-03-19T06:25:23.112Z,99.90
2019-03-19T06:28:00.700Z,99.90
2019-03-19T06:30:33.328Z,99.90
2019-03-19T06:33:07.704Z,99.90
2019-03-19T06:35:40.393Z,99.90
2019-03-19T06:38:17.280Z,99.90
2019-03-19T06:40:56.150Z,99.90
2019-03-19T06:43:28.553Z,99.90
2019-03-19T06:46:05.089Z,99.90
2019-03-19T06:48:41.411Z,99.90
2019-03-19T06:51:16.904Z,99.90
2019-03-19T06:53:53.041Z,99.90
2019-03-19T06:56:22.661Z,99.90
2019-03-19T06:58:58.485Z,99.90
2019-03-19T07:01:35.107Z,99.90
2019-03-19T07:04:14.956Z,99.90
2019-03-19T07:06:47.531Z,99.90
2019-03-19T07:09:21.659Z,99.90
2019-03-19T07:11:53.856Z,99.90
2019-03-19T07:14:26.233Z,99.90
2019-03-19T07:16:59.528Z,99.90
2019-03-19T07:19:35.337Z,99.90
2019-03-19T07:22:08.277Z,99.90
2019-03-19T07:24:50.098Z,99.90
2019-03-19T07:27:17.004Z,99.90
2019-03-19T07:29:57.589Z,99.90
2019-03-19T07:32:28.606Z,99.90
2019-03-19T07:35:11.706Z,99.90
2019-03-19T07:37:42.917Z,99.90
2019-03-19T07:40:17.347Z,99.90
2019-03-19T07:42:54.470Z,99.90
2019-03-19T07:45:36.803Z,99.90
2019-03-19T07:48:10.072Z,99.90
2019-03-19T07:50:44.021Z,99.90
2019-03-19T07:53:19.209Z,99.90
2019-03-19T07:55:53.595Z,99.90
2019-03-19T07:58:35.982Z,99.90
2019-03-19T08:01:00.309Z,99.90
2019-03-19T08:03:29.696Z,99.90
2019-03-19T08:06:12.097Z,99.90
2019-03-19T08:08:47.691Z,99.90
2019-03-19T08:11:26.012Z,99.90
2019-03-19T08:13:57.179Z,99.90
2019-03-19T08:16:34.376Z,99.90
2019-03-19T08:19:09.363Z,99.90
2019-03-19T08:21:45.010Z,99.90
2019-03-19T08:24:17.922Z,99.90
2019-03-19T08:27:09.739Z,99.90
2019-03-19T08:29:41.879Z,99.90
2019-03-19T08:32:17.754Z,99.90
2019-03-19T08:34:51.607Z,99.90
2019-03-19T08:37:32.679Z,99.90
2019-03-19T08:40:00.352Z,99.90
2019-03-19T08:42:30.951Z,99.90
2019-03-19T08:45:06.873Z,99.90
2019-03-19T08:47:38.527Z,99.90
2019-03-19T08:50:22.994Z,99.90
2019-03-19T08:53:00.475Z,99.90
2019-03-19T08:55:33.406Z,99.90
2019-03-19T08:58:13.374Z,99.90
2019-03-19T09:00:42.867Z,99.80
2019-03-19T09:03:16.876Z,99.90
2019-03-19T09:05:59.849Z,99.60
2019-03-19T09:08:29.412Z,99.20
2019-03-19T09:10:58.933Z,99.40
2019-03-19T09:13:34.259Z,99.00
2019-03-19T09:16:06.269Z,97.90
2019-03-19T09:18:42.948Z,97.00
2019-03-19T09:21:15.147Z,97.70
2019-03-19T09:23:44.559Z,98.40
2019-03-19T09:26:13.880Z,96.70
2019-03-19T09:28:45.919Z,96.80
2019-03-19T09:31:16.750Z,96.10
2019-03-19T09:33:51.518Z,96.60
2019-03-19T09:36:23.565Z,98.00
2019-03-19T09:38:56.871Z,98.60
2019-03-19T09:41:35.007Z,99.80
2019-03-19T09:44:04.324Z,99.50
2019-03-19T09:46:34.693Z,99.50
2019-03-19T09:49:04.033Z,98.50
2019-03-19T09:51:36.440Z,98.90
2019-03-19T09:54:05.884Z,99.30
2019-03-19T09:56:38.222Z,99.80
2019-03-19T09:59:12.169Z,99.90
2019-03-19T10:01:44.384Z,99.10
2019-03-19T10:04:16.776Z,99.30
2019-03-19T10:06:47.780Z,96.90
2019-03-19T10:09:21.415Z,95.90
2019-03-19T10:11:56.476Z,93.60
2019-03-19T10:14:27.413Z,94.00
2019-03-19T10:16:59.294Z,95.60
2019-03-19T10:19:28.664Z,94.30
2019-03-19T10:22:01.141Z,94.90
2019-03-19T10:24:30.617Z,94.10
2019-03-19T10:27:01.566Z,93.00
2019-03-19T10:29:38.144Z,94.20
2019-03-19T10:32:02.007Z,94.40
2019-03-19T10:34:31.317Z,94.70
2019-03-19T10:37:00.617Z,94.40
2019-03-19T10:39:29.931Z,94.30
2019-03-19T10:41:59.237Z,94.40
2019-03-19T10:44:28.610Z,94.20
2019-03-19T10:46:57.942Z,94.90
2019-03-19T10:49:30.265Z,93.00
2019-03-19T10:51:59.683Z,90.90
2019-03-19T10:54:29.077Z,81.50
2019-03-19T10:56:58.400Z,87.80
2019-03-19T10:59:27.801Z,92.00
2019-03-19T11:01:57.100Z,92.80
2019-03-19T11:04:26.424Z,91.60
2019-03-19T11:06:55.732Z,90.20
2019-03-19T11:09:26.032Z,90.40
2019-03-19T11:11:55.340Z,91.00
2019-03-19T11:14:24.679Z,92.80
2019-03-19T11:16:53.994Z,93.60
2019-03-19T11:19:23.311Z,93.50
2019-03-19T11:21:56.712Z,92.60
2019-03-19T11:24:28.757Z,91.70
2019-03-19T11:26:59.707Z,85.50
2019-03-19T11:29:29.030Z,74.70
2019-03-19T11:31:58.341Z,78.40
2019-03-19T11:34:27.654Z,83.30
2019-03-19T11:36:58.246Z,89.50
2019-03-19T11:39:27.628Z,91.00
2019-03-19T11:41:56.941Z,86.60
2019-03-19T11:44:26.257Z,86.50
2019-03-19T11:46:55.583Z,77.10
2019-03-19T11:49:24.936Z,72.10
2019-03-19T11:51:54.308Z,76.50
2019-03-19T11:54:23.624Z,81.60
2019-03-19T11:56:52.943Z,84.90
2019-03-19T11:59:25.231Z,87.40
2019-03-19T12:01:53.260Z,83.30
2019-03-19T12:04:22.565Z,86.90
2019-03-19T12:06:51.891Z,78.50
2019-03-19T12:09:27.046Z,62.90
2019-03-19T12:11:56.377Z,65.80
2019-03-19T12:14:25.675Z,56.80
2019-03-19T12:16:55.093Z,57.20
2019-03-19T12:19:24.397Z,56.50
2019-03-19T12:21:53.713Z,63.90
2019-03-19T12:24:23.020Z,61.50
2019-03-19T12:26:52.332Z,69.00
2019-03-19T12:29:21.636Z,68.10
2019-03-19T12:31:50.953Z,63.30
2019-03-19T12:34:20.263Z,72.80
2019-03-19T12:36:49.577Z,76.60
2019-03-19T12:39:18.891Z,77.70
2019-03-19T12:41:48.611Z,83.40
2019-03-19T12:44:18.002Z,88.30
2019-03-19T12:46:47.314Z,86.30
2019-03-19T12:49:16.622Z,88.70
2019-03-19T12:51:46.003Z,90.50
2019-03-19T12:54:15.309Z,91.40
2019-03-19T12:56:44.662Z,90.40
2019-03-19T12:59:20.141Z,91.50
2019-03-19T13:01:44.985Z,91.70
2019-03-19T13:04:14.317Z,92.50
2019-03-19T13:06:43.625Z,90.20
2019-03-19T13:09:12.939Z,89.20
2019-03-19T13:11:42.261Z,78.50
2019-03-19T13:14:14.388Z,76.70
2019-03-19T13:16:43.697Z,84.20
2019-03-19T13:19:13.014Z,89.80
2019-03-19T13:21:42.338Z,86.80
2019-03-19T13:24:11.719Z,76.30
2019-03-19T13:26:41.124Z,64.30
2019-03-19T13:29:10.423Z,66.30
2019-03-19T13:31:43.199Z,66.10
2019-03-19T13:34:16.793Z,62.30
2019-03-19T13:36:46.104Z,54.80
2019-03-19T13:39:17.119Z,53.20
2019-03-19T13:41:48.450Z,51.50
2019-03-19T13:44:17.755Z,54.80
2019-03-19T13:46:47.073Z,65.40
2019-03-19T13:49:59.679Z,69.00
2019-03-19T13:52:27.760Z,71.50
2019-03-19T13:54:57.064Z,79.90
2019-03-19T13:59:09.120Z,74.90
2019-03-19T14:00:13.556Z,67.90
2019-03-19T14:02:45.747Z,64.10
2019-03-19T14:05:16.463Z,70.60
2019-03-19T14:07:45.912Z,78.10
2019-03-19T14:10:18.289Z,83.50
2019-03-19T14:12:47.842Z,72.10
2019-03-19T14:15:27.289Z,63.80
2019-03-19T14:17:56.613Z,57.30
2019-03-19T14:27:22.998Z,55.00
2019-03-19T14:30:38.337Z,54.50
2019-03-19T14:40:01.510Z,62.70
2019-03-19T14:45:59.830Z,78.30
2019-03-19T14:48:27.506Z,77.60
2019-03-19T14:51:05.896Z,67.50
2019-03-19T14:53:40.616Z,65.50
2019-03-19T14:56:10.012Z,65.40
2019-03-19T14:58:41.846Z,66.20
2019-03-19T15:01:19.355Z,65.90
2019-03-19T15:04:24.348Z,63.20
2019-03-19T15:06:59.995Z,60.00
2019-03-19T15:09:31.926Z,62.80
2019-03-19T15:12:07.391Z,58.00
2019-03-19T15:14:56.939Z,56.80
2019-03-19T15:17:36.010Z,53.10
2019-03-19T15:20:18.338Z,54.80
2019-03-19T15:22:47.895Z,55.60
2019-03-19T15:25:21.788Z,55.20
2019-03-19T15:28:24.442Z,55.80
2019-03-19T15:30:54.104Z,53.10
2019-03-19T15:33:37.667Z,58.10
2019-03-19T15:36:33.601Z,59.10
2019-03-19T15:41:49.875Z,55.10
2019-03-19T15:44:41.540Z,58.40
2019-03-19T15:53:40.583Z,66.20
2019-03-19T15:56:15.580Z,50.00
2019-03-19T15:59:17.141Z,55.70
2019-03-19T16:01:56.769Z,61.30
2019-03-19T16:04:30.907Z,64.90
2019-03-19T16:07:07.714Z,69.00
2019-03-19T16:09:51.881Z,60.80
2019-03-19T16:12:24.885Z,58.10
2019-03-19T16:15:42.942Z,59.20
2019-03-19T16:17:33.904Z,60.90
2019-03-19T16:20:04.776Z,58.90
2019-03-19T16:22:34.676Z,56.10
2019-03-19T16:25:07.009Z,55.40
2019-03-19T16:27:39.075Z,58.30
2019-03-19T16:30:22.003Z,61.40
2019-03-19T16:36:07.755Z,64.50
2019-03-19T16:39:02.983Z,70.40
2019-03-19T16:41:38.050Z,72.10
2019-03-19T16:44:07.404Z,75.90
2019-03-19T16:46:36.705Z,79.90
2019-03-19T16:49:06.034Z,82.80
2019-03-19T16:51:35.364Z,85.10
2019-03-19T16:54:04.789Z,87.10
2019-03-19T16:56:37.111Z,89.10
2019-03-19T16:59:12.586Z,90.20
2019-03-19T17:01:42.100Z,90.00
2019-03-19T17:04:20.192Z,90.30
2019-03-19T17:06:48.972Z,91.10
2019-03-19T17:16:29.042Z,91.40
2019-03-19T17:18:58.481Z,91.60
2019-03-19T17:21:29.396Z,92.00
2019-03-19T17:24:01.528Z,92.40
2019-03-19T17:26:31.005Z,92.40
2019-03-19T17:29:00.486Z,92.60
2019-03-19T17:31:31.511Z,93.60
2019-03-19T17:34:02.592Z,93.60
2019-03-19T17:36:38.114Z,93.50
2019-03-19T17:40:54.956Z,93.90
2019-03-19T17:41:53.567Z,94.00
2019-03-19T17:44:22.673Z,94.70
2019-03-19T17:46:51.964Z,95.40
2019-03-19T17:49:21.280Z,95.30
2019-03-19T17:51:50.593Z,95.80
2019-03-19T17:54:19.905Z,96.30
2019-03-19T17:56:50.874Z,96.80
2019-03-19T17:59:23.282Z,97.10
2019-03-19T18:02:06.172Z,96.60
2019-03-19T18:04:45.451Z,97.80
2019-03-19T18:07:37.571Z,97.60
2019-03-19T18:10:09.610Z,97.70
2019-03-19T18:12:38.996Z,98.20
2019-03-19T18:15:10.656Z,99.40
2019-03-19T18:17:40.020Z,99.60
2019-03-19T18:20:12.317Z,99.90
2019-03-19T18:22:41.817Z,98.90
2019-03-19T18:25:13.154Z,98.80
2019-03-19T18:27:44.159Z,99.00
2019-03-19T18:30:21.207Z,99.30
2019-03-19T18:32:50.532Z,99.70
2019-03-19T18:35:19.906Z,99.90
2019-03-19T18:37:49.343Z,99.90
2019-03-19T18:40:19.566Z,99.90
2019-03-19T18:42:48.862Z,99.90
2019-03-19T18:45:21.871Z,99.90
2019-03-19T18:47:57.826Z,99.90
2019-03-19T18:50:27.547Z,99.90
2019-03-19T18:52:56.902Z,99.90
2019-03-19T18:55:26.220Z,99.90
2019-03-19T18:57:55.528Z,99.90
2019-03-19T19:00:25.011Z,99.90
2019-03-19T19:03:13.679Z,99.90
2019-03-19T19:08:27.858Z,99.90
2019-03-19T19:11:05.106Z,99.90
2019-03-19T19:13:40.993Z,99.90
2019-03-19T19:16:13.198Z,99.90
2019-03-19T19:18:50.334Z,99.90
2019-03-19T19:21:43.946Z,99.90
2019-03-19T19:24:45.966Z,99.90
2019-03-19T19:30:53.448Z,99.90
2019-03-19T19:45:43.371Z,99.90
2019-03-19T19:48:16.719Z,99.90
2019-03-19T19:54:43.721Z,99.90
2019-03-19T19:57:15.642Z,99.90
2019-03-19T19:59:46.490Z,99.90
2019-03-19T20:02:42.942Z,99.90
2019-03-19T20:05:12.522Z,99.90
2019-03-19T20:07:47.984Z,99.90
2019-03-19T20:10:40.955Z,99.90
2019-03-19T20:13:19.499Z,99.90
2019-03-19T20:15:50.369Z,99.90
2019-03-19T20:18:19.680Z,99.90
2019-03-19T20:20:57.781Z,99.90
2019-03-19T20:23:31.329Z,99.90
2019-03-19T20:26:06.107Z,99.90
2019-03-19T20:32:13.258Z,99.90
2019-03-19T20:39:11.202Z,99.90
2019-03-19T20:41:28.803Z,99.90
2019-03-19T20:47:39.726Z,99.90
2019-03-19T20:53:22.702Z,99.90
2019-03-19T20:59:19.125Z,99.90
2019-03-19T21:01:49.536Z,99.90
2019-03-19T21:04:31.825Z,99.90
2019-03-19T21:07:10.983Z,99.90
2019-03-19T21:09:43.535Z,99.90
2019-03-19T21:12:13.245Z,99.90
2019-03-19T21:14:44.197Z,99.90
2019-03-19T21:17:13.545Z,99.90
2019-03-19T21:19:42.847Z,99.90
2019-03-19T21:22:12.170Z,99.90
2019-03-19T21:24:41.492Z,99.90
2019-03-19T21:27:10.809Z,99.90
2019-03-19T21:29:40.128Z,99.90
2019-03-19T21:32:09.447Z,99.90
2019-03-19T21:34:38.763Z,99.90
2019-03-19T21:37:08.116Z,99.90
2019-03-19T21:39:41.245Z,99.90
2019-03-19T21:42:12.159Z,99.90
2019-03-19T21:44:53.350Z,99.90
2019-03-19T21:47:29.030Z,99.90
2019-03-19T21:50:01.613Z,99.90
2019-03-19T21:52:31.007Z,99.90
2019-03-19T21:55:00.471Z,99.90
2019-03-19T21:57:32.343Z,99.90
2019-03-19T22:00:04.743Z,99.90
2019-03-19T22:02:37.082Z,99.90
2019-03-19T22:05:07.328Z,99.90
2019-03-19T22:07:36.636Z,99.90
2019-03-19T22:10:11.170Z,99.90
2019-03-19T22:12:40.552Z,99.90
2019-03-19T22:15:13.754Z,99.90
2019-03-19T22:17:43.070Z,99.90
2019-03-19T22:20:13.988Z,99.90
2019-03-19T22:22:43.301Z,99.90
2019-03-19T22:25:14.045Z,99.90
2019-03-19T22:27:44.500Z,99.90
2019-03-19T22:30:18.582Z,99.90
2019-03-19T22:32:47.952Z,99.90
2019-03-19T22:35:17.261Z,99.90
2019-03-19T22:37:47.339Z,99.90
2019-03-19T22:40:17.675Z,99.90
2019-03-19T22:42:47.160Z,99.90
2019-03-19T22:45:18.383Z,99.90
2019-03-19T22:47:48.107Z,99.90
2019-03-19T22:50:18.369Z,99.90
2019-03-19T22:52:47.819Z,99.90
2019-03-19T22:55:28.078Z,99.90
2019-03-19T22:57:48.136Z,99.90
2019-03-19T23:00:37.286Z,99.90
2019-03-19T23:03:09.279Z,99.90
2019-03-19T23:05:39.625Z,99.90
2019-03-19T23:08:09.005Z,99.90
2019-03-19T23:10:38.313Z,99.90
2019-03-19T23:13:07.627Z,99.90
2019-03-19T23:15:36.932Z,99.90
2019-03-19T23:18:06.253Z,99.90
2019-03-19T23:20:35.620Z,99.90
2019-03-19T23:23:05.000Z,99.90
2019-03-19T23:25:35.375Z,99.90
2019-03-19T23:28:04.818Z,99.90
2019-03-19T23:30:34.236Z,99.90
2019-03-19T23:33:03.638Z,99.90
2019-03-19T23:35:32.958Z,99.90
2019-03-19T23:38:02.352Z,99.90
2019-03-19T23:40:31.655Z,99.90
2019-03-19T23:43:00.979Z,99.90
2019-03-19T23:45:31.356Z,99.90
2019-03-19T23:48:00.676Z,99.90
2019-03-19T23:50:29.992Z,99.90
2019-03-19T23:52:59.312Z,99.90
2019-03-19T23:55:28.620Z,99.90
2019-03-19T23:57:58.024Z,99.90
